createdAt,value
2022-08-03T00:03:09.813Z,572
2022-08-03T00:08:28.321Z,575
2022-08-03T00:13:47.565Z,595
2022-08-03T00:19:05.772Z,618
2022-08-03T00:24:24.576Z,618
2022-08-03T00:29:57.715Z,629
2022-08-03T00:35:29.999Z,629
2022-08-03T00:41:08.847Z,620
2022-08-03T00:46:27.336Z,620
2022-08-03T00:51:45.576Z,609
2022-08-03T00:57:03.744Z,590
2022-08-03T01:02:22.513Z,590
2022-08-03T01:07:41.283Z,615
2022-08-03T01:12:59.761Z,650
2022-08-03T01:18:18.281Z,688
2022-08-03T01:23:36.464Z,702
2022-08-03T01:28:54.668Z,692
2022-08-03T01:34:14.692Z,675
2022-08-03T01:39:33.056Z,684
2022-08-03T01:44:50.988Z,669
2022-08-03T01:50:09.462Z,664
2022-08-03T01:55:27.997Z,662
2022-08-03T02:00:46.469Z,665
2022-08-03T02:06:59.642Z,639
2022-08-03T02:12:21.569Z,610
2022-08-03T02:17:40.413Z,598
2022-08-03T02:22:58.926Z,593
2022-08-03T02:28:17.677Z,631
2022-08-03T02:33:35.898Z,641
2022-08-03T02:38:54.382Z,672
2022-08-03T02:44:14.539Z,689
2022-08-03T02:49:35.309Z,730
2022-08-03T02:55:10.450Z,773
2022-08-03T03:00:28.934Z,854
2022-08-03T03:05:53.763Z,812
2022-08-03T03:11:17.654Z,693
2022-08-03T03:16:36.169Z,612
2022-08-03T03:21:54.938Z,581
2022-08-03T03:27:16.449Z,560
2022-08-03T03:32:35.066Z,553
2022-08-03T03:37:53.311Z,587
2022-08-03T03:42:56.142Z,598
2022-08-03T03:48:14.637Z,595
2022-08-03T03:53:33.124Z,599
2022-08-03T03:58:51.927Z,607
2022-08-03T04:04:10.387Z,639
2022-08-03T04:09:28.841Z,658
2022-08-03T04:14:47.044Z,672
2022-08-03T04:20:05.571Z,666
2022-08-03T04:25:23.745Z,670
2022-08-03T04:30:42.238Z,686
2022-08-03T04:36:01.416Z,622
2022-08-03T04:41:21.545Z,645
2022-08-03T04:46:39.461Z,625
2022-08-03T04:52:10.921Z,620
2022-08-03T04:57:29.752Z,599
2022-08-03T05:02:48.517Z,612
2022-08-03T05:08:06.999Z,615
2022-08-03T05:13:29.629Z,561
2022-08-03T05:18:48.130Z,538
2022-08-03T05:24:06.632Z,534
2022-08-03T05:29:09.177Z,545
2022-08-03T05:34:27.937Z,556
2022-08-03T05:39:46.726Z,534
2022-08-03T05:45:04.912Z,499
2022-08-03T05:50:10.788Z,498
2022-08-03T05:55:29.276Z,495
2022-08-03T06:00:47.738Z,620
2022-08-03T06:06:06.228Z,541
2022-08-03T06:11:24.424Z,488
2022-08-03T06:16:42.897Z,465
2022-08-03T06:22:01.369Z,457
2022-08-03T06:27:27.714Z,453
2022-08-03T06:32:55.745Z,445
2022-08-03T06:38:15.415Z,447
2022-08-03T06:43:35.830Z,474
2022-08-03T06:48:54.202Z,489
2022-08-03T06:54:12.699Z,473
2022-08-03T07:00:07.004Z,493
2022-08-03T07:05:30.672Z,521
2022-08-03T07:10:33.257Z,527
2022-08-03T07:15:54.818Z,547
2022-08-03T07:21:14.736Z,546
2022-08-03T07:26:32.959Z,564
2022-08-03T07:31:51.406Z,552
2022-08-03T07:37:09.599Z,544
2022-08-03T07:42:27.492Z,553
2022-08-03T07:47:53.094Z,547
2022-08-03T07:53:12.624Z,552
2022-08-03T07:58:31.383Z,563
2022-08-03T08:03:52.547Z,566
2022-08-03T08:09:12.253Z,555
2022-08-03T08:14:30.731Z,545
2022-08-03T08:19:51.800Z,522
2022-08-03T08:25:11.619Z,510
2022-08-03T08:30:29.798Z,507
2022-08-03T08:35:49.625Z,499
2022-08-03T08:41:08.142Z,511
2022-08-03T08:46:26.873Z,515
2022-08-03T08:51:54.410Z,518
2022-08-03T08:57:40.633Z,557
2022-08-03T09:03:01.573Z,538
2022-08-03T09:08:21.153Z,537
2022-08-03T09:13:39.839Z,542
2022-08-03T09:18:58.051Z,555
2022-08-03T09:24:31.288Z,560
2022-08-03T09:30:01.216Z,566
2022-08-03T09:35:27.962Z,568
2022-08-03T09:41:15.629Z,575
2022-08-03T09:46:34.426Z,585
2022-08-03T09:52:31.402Z,584
2022-08-03T09:58:10.106Z,587
2022-08-03T10:03:29.030Z,592
2022-08-03T10:08:47.525Z,598
2022-08-03T10:14:06.421Z,609
2022-08-03T10:19:24.865Z,619
2022-08-03T10:24:43.629Z,622
2022-08-03T10:30:01.525Z,633
2022-08-03T10:35:21.392Z,633
2022-08-03T10:40:48.472Z,639
2022-08-03T10:46:16.610Z,647
2022-08-03T10:51:34.760Z,657
2022-08-03T10:56:53.362Z,662
2022-08-03T11:01:59.435Z,672
2022-08-03T11:07:19.298Z,679
2022-08-03T11:12:38.684Z,686
2022-08-03T11:17:57.437Z,684
2022-08-03T11:23:18.977Z,687
2022-08-03T11:29:24.761Z,693
2022-08-03T11:34:42.964Z,693
2022-08-03T11:40:02.648Z,699
2022-08-03T11:45:21.385Z,706
2022-08-03T11:50:39.565Z,709
2022-08-03T11:55:58.323Z,714
2022-08-03T12:01:19.988Z,725
2022-08-03T12:06:45.477Z,736
2022-08-03T12:11:51.022Z,756
2022-08-03T12:17:19.835Z,769
2022-08-03T12:22:38.957Z,782
2022-08-03T12:27:57.703Z,800
2022-08-03T12:33:16.149Z,822
2022-08-03T12:38:36.956Z,841
2022-08-03T12:43:57.765Z,845
2022-08-03T12:49:15.998Z,842
2022-08-03T12:54:34.227Z,837
2022-08-03T12:59:52.956Z,824
2022-08-03T13:05:11.960Z,817
2022-08-03T13:10:30.473Z,827
2022-08-03T13:15:49.219Z,844
2022-08-03T13:21:07.672Z,843
2022-08-03T13:26:26.465Z,844
2022-08-03T13:31:50.354Z,878
2022-08-03T13:37:10.047Z,895
2022-08-03T13:42:28.626Z,899
2022-08-03T13:47:46.860Z,892
2022-08-03T13:52:49.975Z,899
2022-08-03T13:58:08.495Z,905
2022-08-03T14:03:26.947Z,917
2022-08-03T14:08:45.700Z,608
2022-08-03T14:14:04.474Z,463
2022-08-03T14:19:24.859Z,416
2022-08-03T14:24:44.948Z,403
2022-08-03T14:30:03.613Z,402
2022-08-03T14:35:22.339Z,402
2022-08-03T14:40:40.561Z,397
2022-08-03T14:45:43.388Z,404
2022-08-03T14:51:01.868Z,404
2022-08-03T14:56:20.363Z,415
2022-08-03T15:02:03.680Z,415
2022-08-03T15:07:40.508Z,411
2022-08-03T15:12:58.990Z,406
2022-08-03T15:18:17.474Z,403
2022-08-03T15:23:35.929Z,410
2022-08-03T15:28:54.700Z,411
2022-08-03T15:34:13.456Z,402
2022-08-03T15:39:31.978Z,405
2022-08-03T15:45:20.421Z,413
2022-08-03T15:50:38.981Z,410
2022-08-03T15:55:57.143Z,405
2022-08-03T16:01:19.600Z,403
2022-08-03T16:06:38.647Z,403
2022-08-03T16:11:56.821Z,406
2022-08-03T16:17:15.575Z,408
2022-08-03T16:22:34.062Z,411
2022-08-03T16:27:58.261Z,414
2022-08-03T16:33:32.588Z,431
2022-08-03T16:38:50.823Z,426
2022-08-03T16:44:10.017Z,424
2022-08-03T16:49:53.541Z,421
2022-08-03T16:55:15.270Z,416
2022-08-03T17:01:21.378Z,409
2022-08-03T17:06:53.537Z,405
2022-08-03T17:12:12.026Z,410
2022-08-03T17:17:30.334Z,409
2022-08-03T17:23:19.238Z,410
2022-08-03T17:28:56.532Z,415
2022-08-03T17:34:16.297Z,417
2022-08-03T17:39:57.461Z,420
2022-08-03T17:45:17.875Z,429
2022-08-03T17:50:40.206Z,441
2022-08-03T17:55:51.248Z,458
2022-08-03T18:01:57.230Z,475
2022-08-03T18:07:48.505Z,476
2022-08-03T18:13:17.012Z,486
2022-08-03T18:18:35.992Z,501
2022-08-03T18:24:00.808Z,500
2022-08-03T18:29:19.035Z,488
2022-08-03T18:34:41.038Z,478
2022-08-03T18:40:12.926Z,473
2022-08-03T18:45:56.557Z,470
2022-08-03T18:51:24.278Z,463
2022-08-03T18:57:04.598Z,468
2022-08-03T19:02:23.110Z,455
2022-08-03T19:07:42.982Z,459
2022-08-03T19:13:18.142Z,471
2022-08-03T19:18:55.604Z,484
2022-08-03T19:24:14.957Z,484
2022-08-03T19:29:59.692Z,486
2022-08-03T21:18:35.669Z,711
2022-08-03T21:23:54.131Z,770
2022-08-03T21:29:12.920Z,803
2022-08-03T21:34:31.095Z,806
2022-08-03T21:39:50.451Z,797
2022-08-03T21:45:11.846Z,786
2022-08-03T21:50:35.835Z,771
2022-08-03T21:55:54.546Z,786
2022-08-03T22:01:13.039Z,809
2022-08-03T22:06:31.740Z,813
2022-08-03T22:11:49.659Z,817
2022-08-03T22:17:08.134Z,816
2022-08-03T22:22:28.728Z,794
2022-08-03T22:27:47.190Z,781
2022-08-03T22:33:05.689Z,785
2022-08-03T22:38:30.086Z,767
2022-08-03T22:43:48.859Z,750
2022-08-03T22:49:07.343Z,744
2022-08-03T22:54:25.839Z,736
2022-08-03T22:59:44.597Z,738
2022-08-03T23:05:03.091Z,766
2022-08-03T23:10:21.285Z,774
2022-08-03T23:15:39.206Z,795
2022-08-03T23:20:57.414Z,797
2022-08-03T23:26:16.556Z,811
2022-08-03T23:31:35.047Z,818
2022-08-03T23:36:53.257Z,667
2022-08-03T23:42:11.994Z,601
2022-08-03T23:47:46.214Z,620
2022-08-03T23:53:05.718Z,637
2022-08-03T23:58:24.159Z,655
